createdAt,value
2023-02-04T00:00:22.966Z,101355.25
2023-02-04T00:02:50.512Z,101370.50
2023-02-04T00:05:19.249Z,101381.22
2023-02-04T00:07:46.385Z,101392.00
2023-02-04T00:10:13.887Z,101394.34
2023-02-04T00:12:40.818Z,101401.03
2023-02-04T00:15:08.217Z,101417.09
2023-02-04T00:17:35.637Z,101428.19
2023-02-04T00:20:02.571Z,101434.81
2023-02-04T00:22:29.507Z,101436.19
2023-02-04T00:24:56.770Z,101442.66
2023-02-04T00:27:23.789Z,101446.69
2023-02-04T00:29:50.788Z,101458.47
2023-02-04T00:32:17.965Z,101469.34
2023-02-04T00:34:45.018Z,101480.41
2023-02-04T00:37:11.997Z,101490.00
2023-02-04T00:39:38.911Z,101490.34
2023-02-04T00:42:06.436Z,101510.81
2023-02-04T00:44:33.461Z,101512.16
2023-02-04T00:47:00.448Z,101537.91
2023-02-04T00:49:27.362Z,101543.63
2023-02-04T00:51:54.320Z,101565.53
2023-02-04T00:54:21.289Z,101572.69
2023-02-04T00:56:48.296Z,101579.91
2023-02-04T00:59:15.272Z,101606.94
2023-02-04T01:01:42.291Z,101608.13
2023-02-04T01:04:09.309Z,101614.50
2023-02-04T01:06:36.939Z,101623.59
2023-02-04T01:09:04.826Z,101630.06
2023-02-04T01:11:32.357Z,101629.75
2023-02-04T01:13:59.521Z,101649.09
2023-02-04T01:16:26.860Z,101663.38
2023-02-04T01:18:55.882Z,101661.34
2023-02-04T01:21:25.286Z,101664.53
2023-02-04T01:23:52.727Z,101668.69
2023-02-04T01:26:20.926Z,101672.06
2023-02-04T01:28:48.126Z,101688.31
2023-02-04T01:31:15.767Z,101701.09
2023-02-04T01:33:42.878Z,101707.97
2023-02-04T01:36:10.545Z,101715.59
2023-02-04T01:38:37.667Z,101718.09
2023-02-04T01:41:05.831Z,101718.88
2023-02-04T01:43:33.982Z,101729.97
2023-02-04T01:46:02.679Z,101735.72
2023-02-04T01:48:30.660Z,101738.31
2023-02-04T01:51:06.262Z,101748.50
2023-02-04T01:53:34.880Z,101750.97
2023-02-04T01:56:20.216Z,101761.91
2023-02-04T01:58:48.180Z,101783.41
2023-02-04T02:01:42.020Z,101779.75
2023-02-04T02:04:12.322Z,101812.25
2023-02-04T02:06:44.282Z,101808.66
2023-02-04T02:09:11.196Z,101820.66
2023-02-04T02:11:38.229Z,101830.16
2023-02-04T02:14:05.576Z,101832.25
2023-02-04T02:16:32.643Z,101839.56
2023-02-04T02:19:00.072Z,101851.94
2023-02-04T02:21:53.289Z,101853.22
2023-02-04T02:24:33.182Z,101862.34
2023-02-04T02:27:08.311Z,101867.84
2023-02-04T02:29:36.947Z,101865.47
2023-02-04T02:32:04.474Z,101874.91
2023-02-04T02:34:32.123Z,101880.75
2023-02-04T02:37:00.704Z,101889.19
2023-02-04T02:39:28.358Z,101902.66
2023-02-04T02:41:56.778Z,101908.63
2023-02-04T02:44:25.149Z,101910.09
2023-02-04T02:46:53.791Z,101907.41
2023-02-04T02:49:21.606Z,101919.41
2023-02-04T02:51:49.628Z,101925.25
2023-02-04T02:54:27.602Z,101944.00
2023-02-04T02:56:55.430Z,101949.94
2023-02-04T02:59:22.855Z,101945.28
2023-02-04T03:02:01.310Z,101945.59
2023-02-04T03:04:32.062Z,101949.44
2023-02-04T03:06:59.360Z,101962.78
2023-02-04T03:09:28.196Z,101963.28
2023-02-04T03:11:55.500Z,101964.53
2023-02-04T03:14:25.307Z,101976.22
2023-02-04T03:16:54.688Z,101979.38
2023-02-04T03:19:26.394Z,101979.97
2023-02-04T03:21:57.521Z,101993.31
2023-02-04T03:24:24.959Z,101994.78
2023-02-04T03:26:52.602Z,102010.13
2023-02-04T03:29:19.699Z,102021.09
2023-02-04T03:31:46.746Z,102036.44
2023-02-04T03:34:14.461Z,102036.31
2023-02-04T03:36:41.416Z,102054.34
2023-02-04T03:39:08.425Z,102047.28
2023-02-04T03:41:35.370Z,102061.06
2023-02-04T03:44:02.322Z,102066.13
2023-02-04T03:46:29.530Z,102085.81
2023-02-04T03:48:56.532Z,102085.81
2023-02-04T03:51:23.509Z,102095.09
2023-02-04T03:53:50.496Z,102103.72
2023-02-04T03:56:17.501Z,102111.44
2023-02-04T03:58:44.422Z,102135.50
2023-02-04T04:01:11.415Z,102130.53
2023-02-04T04:03:38.400Z,102130.53
2023-02-04T04:06:07.694Z,102146.19
2023-02-04T04:08:34.868Z,102143.84
2023-02-04T04:11:01.797Z,102151.56
2023-02-04T04:13:28.740Z,102156.94
2023-02-04T04:15:55.794Z,102161.41
2023-02-04T04:18:22.738Z,102165.19
2023-02-04T04:20:49.698Z,102175.16
2023-02-04T04:23:16.645Z,102184.41
2023-02-04T04:25:43.566Z,102192.78
2023-02-04T04:28:10.545Z,102184.59
2023-02-04T04:30:37.765Z,102195.44
2023-02-04T04:33:04.704Z,102207.16
2023-02-04T04:35:31.616Z,102201.44
2023-02-04T04:37:58.554Z,102209.28
2023-02-04T04:40:25.495Z,102214.53
2023-02-04T04:42:52.464Z,102226.41
2023-02-04T04:45:20.918Z,102222.72
2023-02-04T04:47:48.004Z,102237.06
2023-02-04T04:50:15.177Z,102243.38
2023-02-04T04:52:42.239Z,102250.66
2023-02-04T04:55:09.743Z,102256.06
2023-02-04T04:57:36.758Z,102266.69
2023-02-04T05:00:06.189Z,102273.88
2023-02-04T05:02:33.281Z,102275.34
2023-02-04T05:05:00.406Z,102292.47
2023-02-04T05:07:27.824Z,102293.13
2023-02-04T05:09:54.728Z,102286.53
2023-02-04T05:12:21.645Z,102300.75
2023-02-04T05:14:48.620Z,102299.50
2023-02-04T05:17:15.575Z,102304.22
2023-02-04T05:19:42.522Z,102306.53
2023-02-04T05:22:09.499Z,102310.44
2023-02-04T05:24:36.444Z,102328.03
2023-02-04T05:27:03.504Z,102322.41
2023-02-04T05:29:30.455Z,102331.78
2023-02-04T05:31:57.440Z,102333.25
2023-02-04T05:34:24.495Z,102344.09
2023-02-04T05:36:51.549Z,102358.38
2023-02-04T05:39:18.514Z,102354.56
2023-02-04T05:41:45.610Z,102364.72
2023-02-04T05:44:12.581Z,102370.56
2023-02-04T05:46:39.578Z,102370.19
2023-02-04T05:49:07.617Z,102377.78
2023-02-04T05:51:34.600Z,102391.31
2023-02-04T05:54:01.566Z,102390.41
2023-02-04T05:56:28.520Z,102391.19
2023-02-04T05:58:55.502Z,102402.25
2023-02-04T06:01:22.503Z,102401.25
2023-02-04T06:03:49.439Z,102413.09
2023-02-04T06:06:16.340Z,102420.69
2023-02-04T06:08:43.320Z,102431.09
2023-02-04T06:11:10.231Z,102429.28
2023-02-04T06:13:37.211Z,102438.69
2023-02-04T06:16:04.182Z,102445.63
2023-02-04T06:18:31.124Z,102451.09
2023-02-04T06:20:58.047Z,102451.88
2023-02-04T06:23:24.993Z,102462.97
2023-02-04T06:25:51.942Z,102458.34
2023-02-04T06:28:19.165Z,102467.59
2023-02-04T06:30:46.233Z,102468.25
2023-02-04T06:33:13.260Z,102482.91
2023-02-04T06:35:40.195Z,102471.84
2023-02-04T06:38:07.164Z,102480.22
2023-02-04T06:40:34.406Z,102481.00
2023-02-04T06:43:04.311Z,102480.09
2023-02-04T06:45:31.525Z,102484.72
2023-02-04T06:47:58.507Z,102487.28
2023-02-04T06:50:25.506Z,102491.66
2023-02-04T06:52:52.422Z,102489.97
2023-02-04T06:55:19.465Z,102487.41
2023-02-04T06:57:46.434Z,102492.41
2023-02-04T07:00:14.305Z,102493.31
2023-02-04T07:02:42.499Z,102481.13
2023-02-04T07:05:09.547Z,102482.13
2023-02-04T07:07:36.516Z,102496.13
2023-02-04T07:10:04.103Z,102501.53
2023-02-04T07:12:31.035Z,102503.28
2023-02-04T07:14:58.016Z,102499.94
2023-02-04T07:17:24.920Z,102495.31
2023-02-04T07:19:52.879Z,102498.09
2023-02-04T07:22:19.843Z,102505.38
2023-02-04T07:24:46.770Z,102511.75
2023-02-04T07:27:13.728Z,102512.81
2023-02-04T07:29:40.728Z,102520.66
2023-02-04T07:32:07.732Z,102529.63
2023-02-04T07:34:34.876Z,102529.94
2023-02-04T07:37:02.222Z,102531.88
2023-02-04T07:39:29.215Z,102534.66
2023-02-04T07:41:56.280Z,102538.56
2023-02-04T07:44:23.254Z,102547.00
2023-02-04T07:46:50.195Z,102555.44
2023-02-04T07:49:17.181Z,102551.38
2023-02-04T07:51:44.135Z,102558.41
2023-02-04T07:54:11.147Z,102558.34
2023-02-04T07:56:38.288Z,102561.81
2023-02-04T07:59:05.654Z,102569.41
2023-02-04T08:01:33.050Z,102572.59
2023-02-04T08:04:00.123Z,102579.38
2023-02-04T08:06:27.097Z,102584.38
2023-02-04T08:08:54.006Z,102592.22
2023-02-04T08:11:20.988Z,102588.38
2023-02-04T08:13:47.934Z,102592.72
2023-02-04T08:16:14.902Z,102599.66
2023-02-04T08:18:41.881Z,102600.03
2023-02-04T08:21:08.815Z,102605.31
2023-02-04T08:23:35.760Z,102605.91
2023-02-04T08:26:02.777Z,102610.88
2023-02-04T08:28:29.730Z,102615.69
2023-02-04T08:30:56.777Z,102622.56
2023-02-04T08:33:23.789Z,102624.59
2023-02-04T08:35:50.922Z,102622.78
2023-02-04T08:38:17.834Z,102627.63
2023-02-04T08:40:44.976Z,102632.50
2023-02-04T08:43:11.954Z,102634.84
2023-02-04T08:45:39.163Z,102637.03
2023-02-04T08:48:07.726Z,102634.63
2023-02-04T08:50:34.810Z,102627.91
2023-02-04T08:53:02.211Z,102633.53
2023-02-04T08:55:29.156Z,102634.44
2023-02-04T08:57:56.093Z,102639.59
2023-02-04T09:00:23.215Z,102643.66
2023-02-04T09:02:50.181Z,102649.16
2023-02-04T09:05:17.254Z,102651.53
2023-02-04T09:07:44.298Z,102643.78
2023-02-04T09:10:11.346Z,102649.34
2023-02-04T09:12:38.323Z,102659.13
2023-02-04T09:15:05.743Z,102654.31
2023-02-04T09:17:33.879Z,102670.47
2023-02-04T09:20:00.828Z,102664.28
2023-02-04T09:22:27.853Z,102673.78
2023-02-04T09:24:54.832Z,102668.13
2023-02-04T09:27:21.868Z,102678.16
2023-02-04T09:29:48.842Z,102683.59
2023-02-04T09:32:15.797Z,102694.47
2023-02-04T09:34:42.740Z,102694.31
2023-02-04T09:37:09.874Z,102698.16
2023-02-04T09:39:36.812Z,102699.31
2023-02-04T09:42:03.954Z,102707.78
2023-02-04T09:44:31.007Z,102706.25
2023-02-04T09:47:01.808Z,102706.63
2023-02-04T09:49:28.958Z,102712.88
2023-02-04T09:51:56.420Z,102718.25
2023-02-04T09:54:24.644Z,102722.66
2023-02-04T09:56:52.973Z,102714.44
2023-02-04T09:59:23.213Z,102716.03
2023-02-04T10:02:03.438Z,102723.84
2023-02-04T10:04:30.817Z,102717.69
2023-02-04T10:06:58.993Z,102727.84
2023-02-04T10:09:26.073Z,102733.88
2023-02-04T10:11:53.241Z,102726.66
2023-02-04T10:14:23.152Z,102733.03
2023-02-04T10:16:59.855Z,102727.97
2023-02-04T10:19:29.277Z,102730.47
2023-02-04T10:21:57.060Z,102742.38
2023-02-04T10:24:30.624Z,102734.63
2023-02-04T10:27:09.777Z,102731.19
2023-02-04T10:29:37.608Z,102736.78
2023-02-04T10:32:05.102Z,102742.28
2023-02-04T10:34:40.120Z,102741.75
2023-02-04T10:37:21.378Z,102734.47
2023-02-04T10:39:49.830Z,102747.75
2023-02-04T10:42:27.080Z,102752.78
2023-02-04T10:44:54.972Z,102740.91
2023-02-04T10:47:30.800Z,102748.38
2023-02-04T10:50:02.869Z,102739.34
2023-02-04T10:52:40.525Z,102745.50
2023-02-04T10:55:17.780Z,102753.81
2023-02-04T10:57:47.171Z,102761.06
2023-02-04T11:00:24.308Z,102756.31
2023-02-04T11:03:08.140Z,102752.28
2023-02-04T11:05:36.773Z,102763.38
2023-02-04T11:08:31.163Z,102756.88
2023-02-04T11:11:06.782Z,102752.63
2023-02-04T11:13:51.296Z,102765.56
2023-02-04T11:16:18.647Z,102761.28
2023-02-04T11:19:01.159Z,102761.97
2023-02-04T11:21:28.047Z,102763.50
2023-02-04T11:24:09.917Z,102767.72
2023-02-04T11:26:44.868Z,102762.16
2023-02-04T11:29:34.602Z,102771.63
2023-02-04T11:32:32.448Z,102766.81
2023-02-04T11:35:25.841Z,102790.69
2023-02-04T11:37:54.556Z,102788.69
2023-02-04T11:40:31.072Z,102793.47
2023-02-04T11:43:08.755Z,102788.34
2023-02-04T11:45:37.731Z,102792.47
2023-02-04T11:48:20.573Z,102799.28
2023-02-04T11:50:59.900Z,102802.16
2023-02-04T11:53:32.540Z,102806.00
2023-02-04T11:56:00.176Z,102801.78
2023-02-04T11:58:31.115Z,102809.56
2023-02-04T12:00:58.472Z,102801.50
2023-02-04T12:03:34.373Z,102802.69
2023-02-04T12:06:02.311Z,102807.16
2023-02-04T12:08:36.475Z,102800.31
2023-02-04T12:11:27.343Z,102797.66
2023-02-04T12:13:56.653Z,102793.38
2023-02-04T12:16:24.730Z,102793.28
2023-02-04T12:18:52.165Z,102785.59
2023-02-04T12:21:19.582Z,102790.84
2023-02-04T12:23:46.548Z,102790.91
2023-02-04T12:26:13.741Z,102790.31
2023-02-04T12:28:40.687Z,102807.66
2023-02-04T12:31:07.783Z,102811.31
2023-02-04T12:33:34.768Z,102819.47
2023-02-04T12:36:02.293Z,102818.19
2023-02-04T12:38:29.281Z,102822.09
2023-02-04T12:40:56.233Z,102819.28
2023-02-04T12:43:23.452Z,102820.13
2023-02-04T12:45:50.432Z,102816.50
2023-02-04T12:48:17.458Z,102814.59
2023-02-04T12:50:44.538Z,102810.25
2023-02-04T12:53:11.506Z,102807.50
2023-02-04T12:55:38.508Z,102802.16
2023-02-04T12:58:05.660Z,102820.94
2023-02-04T13:00:32.586Z,102819.41
2023-02-04T13:02:59.543Z,102825.25
2023-02-04T13:05:27.430Z,102825.31
2023-02-04T13:07:54.736Z,102833.16
2023-02-04T13:10:23.979Z,102835.81
2023-02-04T13:12:51.827Z,102835.53
2023-02-04T13:15:19.284Z,102838.13
2023-02-04T13:17:46.294Z,102831.50
2023-02-04T13:20:13.462Z,102834.88
2023-02-04T13:22:40.605Z,102842.03
2023-02-04T13:25:07.973Z,102843.22
2023-02-04T13:27:35.026Z,102838.25
2023-02-04T13:30:02.036Z,102837.69
2023-02-04T13:32:29.005Z,102848.88
2023-02-04T13:34:55.992Z,102854.56
2023-02-04T13:37:22.954Z,102854.13
2023-02-04T13:39:49.916Z,102858.31
2023-02-04T13:42:16.866Z,102853.72
2023-02-04T13:44:43.893Z,102860.69
2023-02-04T13:47:11.165Z,102857.88
2023-02-04T13:49:38.126Z,102857.91
2023-02-04T13:52:05.216Z,102856.53
2023-02-04T13:54:32.297Z,102866.03
2023-02-04T13:56:59.349Z,102861.25
2023-02-04T13:59:26.288Z,102860.47
2023-02-04T14:01:53.275Z,102861.53
2023-02-04T14:04:20.252Z,102871.34
2023-02-04T14:06:47.234Z,102866.47
2023-02-04T14:09:14.187Z,102858.50
2023-02-04T14:11:41.222Z,102865.03
2023-02-04T14:14:08.634Z,102867.22
2023-02-04T14:16:37.735Z,102867.75
2023-02-04T14:19:05.819Z,102865.56
2023-02-04T14:21:33.119Z,102863.78
2023-02-04T14:24:01.024Z,102872.19
2023-02-04T14:26:27.969Z,102875.19
2023-02-04T14:28:54.862Z,102881.91
2023-02-04T14:31:21.819Z,102881.19
2023-02-04T14:33:50.494Z,102884.88
2023-02-04T14:36:17.692Z,102892.44
2023-02-04T14:38:44.840Z,102880.78
2023-02-04T14:41:16.262Z,102885.31
2023-02-04T14:43:43.303Z,102899.34
2023-02-04T14:46:10.452Z,102889.47
2023-02-04T14:48:37.624Z,102898.38
2023-02-04T14:51:05.706Z,102901.25
2023-02-04T14:53:32.689Z,102892.81
2023-02-04T14:55:59.665Z,102892.53
2023-02-04T14:58:27.952Z,102887.91
2023-02-04T15:00:55.655Z,102898.84
2023-02-04T15:03:23.137Z,102894.81
2023-02-04T15:05:50.074Z,102910.00
2023-02-04T15:08:17.005Z,102903.81
2023-02-04T15:10:44.018Z,102909.44
2023-02-04T15:13:11.541Z,102917.34
2023-02-04T15:15:38.531Z,102915.22
2023-02-04T15:18:05.729Z,102917.34
2023-02-04T15:20:33.063Z,102913.50
2023-02-04T15:23:00.889Z,102913.75
2023-02-04T15:25:27.965Z,102925.91
2023-02-04T15:27:55.064Z,102933.84
2023-02-04T15:30:22.739Z,102932.75
2023-02-04T15:32:49.785Z,102930.72
2023-02-04T15:35:16.788Z,102936.22
2023-02-04T15:37:43.767Z,102934.31
2023-02-04T15:40:12.027Z,102928.81
2023-02-04T15:42:39.020Z,102935.31
2023-02-04T15:45:06.612Z,102945.28
2023-02-04T15:47:33.722Z,102939.91
2023-02-04T15:50:00.650Z,102935.94
2023-02-04T15:52:29.213Z,102944.16
2023-02-04T15:54:56.560Z,102934.56
2023-02-04T15:57:23.568Z,102931.56
2023-02-04T15:59:50.523Z,102943.41
2023-02-04T16:02:17.625Z,102938.47
2023-02-04T16:04:45.458Z,102945.50
2023-02-04T16:07:12.660Z,102947.47
2023-02-04T16:09:40.070Z,102947.78
2023-02-04T16:12:07.246Z,102950.50
2023-02-04T16:14:34.354Z,102955.19
2023-02-04T16:17:05.448Z,102967.72
2023-02-04T16:19:32.402Z,102961.16
2023-02-04T16:21:59.485Z,102964.03
2023-02-04T16:24:27.195Z,102973.84
2023-02-04T16:26:54.166Z,102959.44
2023-02-04T16:29:21.120Z,102964.88
2023-02-04T16:31:48.131Z,102958.97
2023-02-04T16:34:15.076Z,102960.00
2023-02-04T16:36:42.021Z,102972.41
2023-02-04T16:39:09.020Z,102973.69
2023-02-04T16:41:36.066Z,102967.16
2023-02-04T16:44:03.042Z,102970.88
2023-02-04T16:46:31.948Z,102964.44
2023-02-04T16:48:59.477Z,102963.16
2023-02-04T16:51:28.073Z,102974.75
2023-02-04T16:53:55.067Z,102978.59
2023-02-04T16:56:22.076Z,102979.13
2023-02-04T16:58:49.637Z,102981.31
2023-02-04T17:01:17.344Z,102981.03
2023-02-04T17:03:45.083Z,102982.44
2023-02-04T17:06:16.392Z,102984.78
2023-02-04T17:08:43.544Z,102983.50
2023-02-04T17:11:28.846Z,102988.25
2023-02-04T17:14:06.017Z,102999.06
2023-02-04T17:16:33.392Z,102986.84
2023-02-04T17:19:01.628Z,102998.66
2023-02-04T17:21:30.455Z,103000.97
2023-02-04T17:24:03.954Z,103000.06
2023-02-04T17:26:37.042Z,103011.75
2023-02-04T17:29:23.892Z,103014.84
2023-02-04T17:31:52.722Z,103009.44
2023-02-04T17:34:19.782Z,103015.22
2023-02-04T17:36:46.762Z,103010.84
2023-02-04T17:39:13.675Z,103018.97
2023-02-04T17:41:40.688Z,103013.97
2023-02-04T17:44:07.745Z,103025.56
2023-02-04T17:46:35.499Z,103027.25
2023-02-04T17:49:02.564Z,103033.41
2023-02-04T17:51:29.610Z,103036.09
2023-02-04T17:53:56.625Z,103027.44
2023-02-04T17:56:26.013Z,103037.72
2023-02-04T17:58:56.244Z,103032.78
2023-02-04T18:01:25.242Z,103028.66
2023-02-04T18:03:52.490Z,103026.16
2023-02-04T18:06:28.869Z,103025.63
2023-02-04T18:09:03.260Z,103026.00
2023-02-04T18:11:36.944Z,103028.13
2023-02-04T18:14:17.240Z,103022.47
2023-02-04T18:16:45.239Z,103029.00
2023-02-04T18:19:36.976Z,103034.63
2023-02-04T18:22:15.812Z,103033.31
2023-02-04T18:24:45.750Z,103033.19
2023-02-04T18:27:24.630Z,103037.16
2023-02-04T18:29:55.556Z,103031.72
2023-02-04T18:32:54.278Z,103039.91
2023-02-04T18:35:37.687Z,103037.06
2023-02-04T18:38:39.148Z,103047.84
2023-02-04T18:41:18.365Z,103057.84
2023-02-04T18:43:51.059Z,103049.69
2023-02-04T18:46:35.817Z,103063.06
2023-02-04T18:49:37.012Z,103065.19
2023-02-04T18:52:21.633Z,103065.66
2023-02-04T18:54:56.376Z,103065.22
2023-02-04T18:57:35.342Z,103065.75
2023-02-04T19:00:11.352Z,103077.38
2023-02-04T19:02:46.694Z,103073.47
2023-02-04T19:05:44.001Z,103073.22
2023-02-04T19:08:19.167Z,103073.69
2023-02-04T19:10:46.256Z,103071.59
2023-02-04T19:13:31.696Z,103078.09
2023-02-04T19:16:27.064Z,103072.56
2023-02-04T19:18:55.357Z,103081.47
2023-02-04T19:21:29.161Z,103093.25
2023-02-04T19:23:58.811Z,103086.78
2023-02-04T19:26:34.014Z,103092.41
2023-02-04T19:29:02.193Z,103091.19
2023-02-04T19:31:38.188Z,103098.59
2023-02-04T19:34:25.659Z,103105.09
2023-02-04T19:36:55.045Z,103095.47
2023-02-04T19:39:40.492Z,103105.44
2023-02-04T19:42:36.908Z,103106.94
2023-02-04T19:45:23.579Z,103102.13
2023-02-04T19:47:56.040Z,103110.31
2023-02-04T19:50:32.699Z,103104.75
2023-02-04T19:53:13.756Z,103118.00
2023-02-04T19:55:51.117Z,103111.69
2023-02-04T19:58:36.682Z,103111.41
2023-02-04T20:01:08.360Z,103105.22
2023-02-04T20:03:47.313Z,103110.97
2023-02-04T20:06:37.636Z,103115.78
2023-02-04T20:09:16.204Z,103116.38
2023-02-04T20:11:58.314Z,103123.03
2023-02-04T20:14:42.706Z,103114.31
2023-02-04T20:17:24.715Z,103120.94
2023-02-04T20:19:51.775Z,103124.09
2023-02-04T20:22:18.630Z,103110.38
2023-02-04T20:24:57.879Z,103123.81
2023-02-04T20:27:30.723Z,103118.53
2023-02-04T20:30:09.768Z,103120.78
2023-02-04T20:32:58.992Z,103124.84
2023-02-04T20:35:32.269Z,103125.47
2023-02-04T20:38:10.520Z,103123.66
2023-02-04T20:40:37.637Z,103133.00
2023-02-04T20:43:17.010Z,103128.50
2023-02-04T20:46:04.747Z,103129.25
2023-02-04T20:48:38.389Z,103137.84
2023-02-04T20:51:17.864Z,103131.66
2023-02-04T20:53:50.433Z,103128.94
2023-02-04T20:56:37.592Z,103140.84
2023-02-04T20:59:34.885Z,103136.16
2023-02-04T21:02:18.818Z,103132.56
2023-02-04T21:04:53.884Z,103139.19
2023-02-04T21:07:23.031Z,103133.16
2023-02-04T21:09:51.648Z,103133.16
2023-02-04T21:12:19.314Z,103136.47
2023-02-04T21:14:46.401Z,103134.81
2023-02-04T21:17:13.451Z,103134.97
2023-02-04T21:19:40.427Z,103140.25
2023-02-04T21:22:07.383Z,103138.72
2023-02-04T21:24:34.347Z,103145.66
2023-02-04T21:27:01.429Z,103141.28
2023-02-04T21:29:28.386Z,103137.97
2023-02-04T21:31:55.368Z,103145.81
2023-02-04T21:34:22.396Z,103146.88
2023-02-04T21:36:49.320Z,103148.53
2023-02-04T21:39:16.331Z,103153.50
2023-02-04T21:41:43.278Z,103159.38
2023-02-04T21:44:10.251Z,103152.44
2023-02-04T21:46:37.226Z,103155.63
2023-02-04T21:49:05.276Z,103163.91
2023-02-04T21:51:32.304Z,103166.91
2023-02-04T21:54:00.037Z,103179.25
2023-02-04T21:56:27.147Z,103173.84
2023-02-04T21:58:54.361Z,103168.41
2023-02-04T22:01:21.486Z,103174.28
2023-02-04T22:03:48.531Z,103173.22
2023-02-04T22:06:15.469Z,103168.84
2023-02-04T22:08:42.423Z,103172.31
2023-02-04T22:11:09.368Z,103167.19
2023-02-04T22:13:54.979Z,103166.63
2023-02-04T22:16:21.911Z,103164.38
2023-02-04T22:18:48.944Z,103162.97
2023-02-04T22:21:15.899Z,103162.69
2023-02-04T22:23:42.815Z,103161.03
2023-02-04T22:26:09.889Z,103161.97
2023-02-04T22:28:36.806Z,103156.66
2023-02-04T22:31:03.906Z,103155.63
2023-02-04T22:33:30.930Z,103156.19
2023-02-04T22:35:57.868Z,103160.13
2023-02-04T22:38:24.897Z,103158.16
2023-02-04T22:40:51.844Z,103158.59
2023-02-04T22:43:18.821Z,103162.50
2023-02-04T22:45:45.804Z,103146.97
2023-02-04T22:48:12.712Z,103145.88
2023-02-04T22:50:39.629Z,103154.03
2023-02-04T22:53:06.651Z,103146.00
2023-02-04T22:55:33.752Z,103150.97
2023-02-04T22:58:00.890Z,103151.69
2023-02-04T23:00:28.200Z,103156.50
2023-02-04T23:02:55.121Z,103156.94
2023-02-04T23:05:22.072Z,103159.94
2023-02-04T23:07:49.122Z,103156.75
2023-02-04T23:10:16.500Z,103152.81
2023-02-04T23:12:43.515Z,103147.06
2023-02-04T23:15:12.481Z,103158.09
2023-02-04T23:17:39.552Z,103155.25
2023-02-04T23:20:07.223Z,103160.09
2023-02-04T23:22:34.229Z,103155.44
2023-02-04T23:25:01.197Z,103148.34
2023-02-04T23:27:28.226Z,103151.66
2023-02-04T23:29:55.149Z,103150.00
2023-02-04T23:32:23.418Z,103150.16
2023-02-04T23:34:50.358Z,103143.50
2023-02-04T23:37:17.248Z,103143.50
2023-02-04T23:39:44.159Z,103151.47
2023-02-04T23:42:11.205Z,103144.53
2023-02-04T23:44:38.156Z,103145.16
2023-02-04T23:47:05.161Z,103139.75
2023-02-04T23:49:32.063Z,103133.56
2023-02-04T23:51:59.056Z,103138.09
2023-02-04T23:54:26.031Z,103143.06
2023-02-04T23:56:53.407Z,103141.25
2023-02-04T23:59:20.351Z,103146.38
